createdAt,value
2023-03-28T00:01:11.289Z,100295.88
2023-03-28T00:03:40.307Z,100301.78
2023-03-28T00:06:13.892Z,100304.31
2023-03-28T00:08:41.856Z,100310.19
2023-03-28T00:11:19.643Z,100302.63
2023-03-28T00:13:57.621Z,100312.66
2023-03-28T00:16:32.004Z,100319.59
2023-03-28T00:19:03.690Z,100323.69
2023-03-28T00:21:41.498Z,100331.13
2023-03-28T00:24:14.716Z,100332.16
2023-03-28T00:26:45.358Z,100331.44
2023-03-28T00:29:20.774Z,100335.38
2023-03-28T00:31:50.650Z,100333.63
2023-03-28T00:34:18.400Z,100340.56
2023-03-28T00:36:45.628Z,100331.00
2023-03-28T00:39:13.519Z,100340.47
2023-03-28T00:41:44.447Z,100339.09
2023-03-28T00:44:56.754Z,100353.28
2023-03-28T00:47:58.791Z,100356.13
2023-03-28T00:50:46.774Z,100354.72
2023-03-28T00:53:26.366Z,100342.69
2023-03-28T00:56:06.010Z,100348.53
2023-03-28T00:58:41.512Z,100351.25
2023-03-28T01:01:14.078Z,100359.97
2023-03-28T01:03:46.442Z,100355.34
2023-03-28T01:06:16.473Z,100361.19
2023-03-28T01:08:47.182Z,100366.13
2023-03-28T01:11:17.314Z,100357.22
2023-03-28T01:13:50.711Z,100364.50
2023-03-28T01:16:22.141Z,100363.38
2023-03-28T01:18:53.161Z,100371.28
2023-03-28T01:21:49.679Z,100370.38
2023-03-28T01:24:39.355Z,100372.31
2023-03-28T01:27:45.558Z,100379.78
2023-03-28T01:31:00.664Z,100370.59
2023-03-28T01:34:28.395Z,100379.31
2023-03-28T01:37:57.815Z,100381.03
2023-03-28T01:40:55.069Z,100381.69
2023-03-28T01:43:34.746Z,100378.88
2023-03-28T01:46:17.116Z,100378.00
2023-03-28T01:49:17.249Z,100372.78
2023-03-28T01:52:15.692Z,100389.19
2023-03-28T01:55:21.827Z,100393.63
2023-03-28T01:58:16.449Z,100390.69
2023-03-28T02:01:05.442Z,100396.78
2023-03-28T02:03:41.985Z,100390.84
2023-03-28T02:06:34.584Z,100394.00
2023-03-28T02:09:04.699Z,100393.78
2023-03-28T02:12:04.316Z,100396.22
2023-03-28T02:15:05.008Z,100396.72
2023-03-28T02:18:01.285Z,100392.44
2023-03-28T02:21:05.845Z,100401.47
2023-03-28T02:24:00.234Z,100408.63
2023-03-28T02:26:47.794Z,100412.03
2023-03-28T02:29:39.130Z,100410.78
2023-03-28T02:32:21.823Z,100410.34
2023-03-28T02:34:52.679Z,100418.94
2023-03-28T02:37:55.695Z,100414.66
2023-03-28T02:40:35.942Z,100414.75
2023-03-28T02:43:36.886Z,100419.59
2023-03-28T02:46:12.818Z,100421.06
2023-03-28T02:49:04.751Z,100429.34
2023-03-28T02:51:49.607Z,100428.53
2023-03-28T02:54:47.389Z,100436.56
2023-03-28T02:57:52.558Z,100437.91
2023-03-28T03:00:20.529Z,100438.16
2023-03-28T03:02:54.079Z,100441.53
2023-03-28T03:05:22.298Z,100441.78
2023-03-28T03:07:51.544Z,100441.72
2023-03-28T03:10:19.266Z,100437.72
2023-03-28T03:12:48.102Z,100438.44
2023-03-28T03:15:18.451Z,100436.22
2023-03-28T03:17:46.016Z,100440.81
2023-03-28T03:20:14.312Z,100444.69
2023-03-28T03:22:41.608Z,100446.59
2023-03-28T03:25:11.928Z,100443.50
2023-03-28T03:27:51.421Z,100443.25
2023-03-28T03:30:20.275Z,100440.81
2023-03-28T03:33:06.422Z,100440.75
2023-03-28T03:35:33.774Z,100445.47
2023-03-28T03:38:04.634Z,100452.66
2023-03-28T03:40:31.946Z,100445.94
2023-03-28T03:43:00.149Z,100442.50
2023-03-28T03:45:28.305Z,100440.66
2023-03-28T03:47:55.736Z,100444.19
2023-03-28T03:50:23.216Z,100442.97
2023-03-28T03:52:50.771Z,100438.28
2023-03-28T03:55:23.764Z,100445.81
2023-03-28T03:57:50.981Z,100445.06
2023-03-28T04:00:19.267Z,100442.06
2023-03-28T04:02:52.339Z,100450.16
2023-03-28T04:05:24.280Z,100453.41
2023-03-28T04:08:11.176Z,100450.09
2023-03-28T04:10:42.250Z,100459.22
2023-03-28T04:13:09.475Z,100455.69
2023-03-28T04:15:38.298Z,100463.88
2023-03-28T04:18:07.533Z,100456.59
2023-03-28T04:20:43.216Z,100470.69
2023-03-28T04:23:11.074Z,100472.44
2023-03-28T04:25:43.306Z,100476.28
2023-03-28T04:28:19.256Z,100477.28
2023-03-28T04:31:04.699Z,100479.59
2023-03-28T04:33:53.667Z,100479.97
2023-03-28T04:36:25.630Z,100478.94
2023-03-28T04:39:02.323Z,100475.16
2023-03-28T04:41:55.369Z,100486.28
2023-03-28T04:44:31.357Z,100482.69
2023-03-28T04:47:03.384Z,100484.66
2023-03-28T04:49:31.858Z,100483.31
2023-03-28T04:52:00.184Z,100476.09
2023-03-28T04:54:27.381Z,100474.81
2023-03-28T04:57:06.209Z,100486.34
2023-03-28T04:59:44.054Z,100479.84
2023-03-28T05:02:17.007Z,100484.00
2023-03-28T05:04:50.996Z,100484.31
2023-03-28T05:07:18.249Z,100485.09
2023-03-28T05:09:45.913Z,100489.34
2023-03-28T05:12:13.219Z,100492.16
2023-03-28T05:14:55.686Z,100499.16
2023-03-28T05:17:23.162Z,100514.88
2023-03-28T05:20:00.142Z,100509.94
2023-03-28T05:22:33.492Z,100515.56
2023-03-28T05:25:01.120Z,100523.63
2023-03-28T05:27:28.430Z,100531.75
2023-03-28T05:29:56.204Z,100541.03
2023-03-28T05:32:23.774Z,100550.91
2023-03-28T05:34:51.712Z,100546.50
2023-03-28T05:37:19.528Z,100552.94
2023-03-28T05:39:51.359Z,100558.41
2023-03-28T05:42:19.531Z,100563.72
2023-03-28T05:44:46.841Z,100573.94
2023-03-28T05:47:55.548Z,100575.06
2023-03-28T05:50:24.639Z,100577.00
2023-03-28T05:52:56.714Z,100582.09
2023-03-28T05:55:23.953Z,100589.03
2023-03-28T05:57:51.837Z,100588.06
2023-03-28T06:00:20.900Z,100594.13
2023-03-28T06:02:52.145Z,100593.63
2023-03-28T06:05:23.993Z,100603.53
2023-03-28T06:07:51.920Z,100609.81
2023-03-28T06:10:20.337Z,100616.44
2023-03-28T06:13:01.423Z,100610.03
2023-03-28T06:15:28.815Z,100619.63
2023-03-28T06:17:57.872Z,100624.03
2023-03-28T06:20:25.178Z,100631.19
2023-03-28T06:22:55.959Z,100635.94
2023-03-28T06:25:23.294Z,100644.34
2023-03-28T06:27:50.758Z,100647.28
2023-03-28T06:30:18.474Z,100644.00
2023-03-28T06:32:51.372Z,100652.91
2023-03-28T06:35:18.700Z,100649.84
2023-03-28T06:37:45.938Z,100656.66
2023-03-28T06:40:17.010Z,100660.28
2023-03-28T06:42:44.400Z,100663.00
2023-03-28T06:45:34.656Z,100661.88
2023-03-28T06:48:08.934Z,100675.44
2023-03-28T06:51:06.470Z,100668.88
2023-03-28T06:53:36.093Z,100675.09
2023-03-28T06:56:03.804Z,100681.78
2023-03-28T06:58:31.546Z,100676.81
2023-03-28T07:01:06.454Z,100677.63
2023-03-28T07:03:53.684Z,100678.50
2023-03-28T07:06:25.838Z,100680.19
2023-03-28T07:08:53.568Z,100679.19
2023-03-28T07:11:26.101Z,100681.69
2023-03-28T07:13:54.112Z,100678.59
2023-03-28T07:16:21.331Z,100685.41
2023-03-28T07:18:49.569Z,100688.66
2023-03-28T07:21:22.833Z,100685.47
2023-03-28T07:23:50.286Z,100685.34
2023-03-28T07:26:21.833Z,100688.72
2023-03-28T07:28:49.336Z,100687.09
2023-03-28T07:31:16.846Z,100688.94
2023-03-28T07:33:44.205Z,100701.31
2023-03-28T07:36:20.387Z,100691.44
2023-03-28T07:38:52.044Z,100697.88
2023-03-28T07:41:22.597Z,100699.41
2023-03-28T07:43:50.234Z,100691.16
2023-03-28T07:46:18.079Z,100688.22
2023-03-28T07:48:46.472Z,100696.16
2023-03-28T07:51:14.736Z,100695.66
2023-03-28T07:53:42.655Z,100698.09
2023-03-28T07:56:10.692Z,100697.59
2023-03-28T07:58:58.395Z,100697.31
2023-03-28T08:01:26.338Z,100695.53
2023-03-28T08:03:59.467Z,100688.47
2023-03-28T08:06:38.349Z,100691.81
2023-03-28T08:09:08.633Z,100682.66
2023-03-28T08:11:43.421Z,100691.81
2023-03-28T08:14:15.464Z,100699.94
2023-03-28T08:16:44.615Z,100700.13
2023-03-28T08:19:12.635Z,100706.56
2023-03-28T08:22:04.452Z,100713.28
2023-03-28T08:24:37.666Z,100709.31
2023-03-28T08:27:13.695Z,100701.03
2023-03-28T08:29:43.458Z,100709.91
2023-03-28T08:32:11.467Z,100713.88
2023-03-28T08:34:40.646Z,100706.41
2023-03-28T08:37:15.029Z,100706.06
2023-03-28T08:39:45.671Z,100711.69
2023-03-28T08:43:00.243Z,100714.31
2023-03-28T08:45:52.412Z,100715.88
2023-03-28T08:48:46.067Z,100720.50
2023-03-28T08:51:36.214Z,100721.16
2023-03-28T08:54:28.954Z,100719.66
2023-03-28T08:57:01.148Z,100718.47
2023-03-28T08:59:50.795Z,100719.81
2023-03-28T09:02:26.939Z,100725.03
2023-03-28T09:05:08.254Z,100721.69
2023-03-28T09:08:09.594Z,100723.25
2023-03-28T09:11:21.738Z,100723.97
2023-03-28T09:14:41.410Z,100725.16
2023-03-28T09:17:39.758Z,100720.56
2023-03-28T09:21:04.285Z,100725.63
2023-03-28T09:23:58.257Z,100723.25
2023-03-28T09:27:28.356Z,100723.69
2023-03-28T09:30:13.261Z,100723.91
2023-03-28T09:32:42.465Z,100726.31
2023-03-28T09:35:23.054Z,100726.34
2023-03-28T09:37:57.556Z,100728.81
2023-03-28T09:40:34.462Z,100728.63
2023-03-28T09:43:44.940Z,100720.38
2023-03-28T09:46:46.898Z,100722.22
2023-03-28T09:49:24.238Z,100722.22
2023-03-28T09:52:23.969Z,100724.50
2023-03-28T09:54:51.684Z,100720.63
2023-03-28T09:57:20.802Z,100712.34
2023-03-28T09:59:48.447Z,100709.09
2023-03-28T10:02:30.895Z,100702.09
2023-03-28T10:05:02.857Z,100705.72
2023-03-28T10:08:03.688Z,100702.16
2023-03-28T10:10:40.519Z,100696.25
2023-03-28T10:13:11.866Z,100702.16
2023-03-28T10:15:47.001Z,100697.91
2023-03-28T10:18:40.329Z,100692.06
2023-03-28T10:21:31.434Z,100706.31
2023-03-28T10:24:17.304Z,100698.81
2023-03-28T10:26:52.642Z,100689.91
2023-03-28T10:29:21.774Z,100693.97
2023-03-28T10:31:50.179Z,100694.03
2023-03-28T10:34:35.272Z,100692.41
2023-03-28T10:37:30.748Z,100702.75
2023-03-28T10:40:17.812Z,100703.25
2023-03-28T10:43:16.275Z,100698.50
2023-03-28T10:46:07.927Z,100702.59
2023-03-28T10:48:56.887Z,100697.47
2023-03-28T10:51:26.745Z,100697.88
2023-03-28T10:54:36.546Z,100694.31
2023-03-28T10:57:38.127Z,100690.34
2023-03-28T11:00:43.482Z,100674.00
2023-03-28T11:03:30.796Z,100665.63
2023-03-28T11:06:54.672Z,100664.69
2023-03-28T11:10:12.775Z,100657.53
2023-03-28T11:13:40.929Z,100664.19
2023-03-28T11:16:33.388Z,100652.22
2023-03-28T11:20:21.607Z,100651.13
2023-03-28T11:23:38.382Z,100658.03
2023-03-28T11:26:49.199Z,100652.34
2023-03-28T11:29:51.790Z,100654.16
2023-03-28T11:32:49.894Z,100645.34
2023-03-28T11:35:50.695Z,100653.91
2023-03-28T11:38:33.120Z,100650.59
2023-03-28T11:41:11.161Z,100654.56
2023-03-28T11:44:29.036Z,100651.13
2023-03-28T11:47:19.012Z,100647.19
2023-03-28T11:50:22.897Z,100642.00
2023-03-28T11:53:38.863Z,100638.75
2023-03-28T11:56:30.736Z,100627.81
2023-03-28T11:59:46.449Z,100630.09
2023-03-28T12:02:52.257Z,100641.22
2023-03-28T12:06:00.036Z,100632.31
2023-03-28T12:09:03.836Z,100620.16
2023-03-28T12:11:56.387Z,100613.22
2023-03-28T12:14:54.404Z,100616.69
2023-03-28T12:17:58.150Z,100615.75
2023-03-28T12:21:13.791Z,100599.19
2023-03-28T12:24:34.068Z,100597.75
2023-03-28T12:27:38.889Z,100598.53
2023-03-28T12:30:38.987Z,100592.09
2023-03-28T12:33:22.731Z,100597.91
2023-03-28T12:36:09.462Z,100600.78
2023-03-28T12:39:01.400Z,100603.09
2023-03-28T12:41:39.353Z,100591.28
2023-03-28T12:44:41.978Z,100597.59
2023-03-28T12:47:22.746Z,100590.38
2023-03-28T12:50:08.012Z,100590.28
2023-03-28T12:52:38.095Z,100593.09
2023-03-28T12:55:31.420Z,100602.06
2023-03-28T12:58:22.307Z,100594.53
2023-03-28T13:01:07.378Z,100594.94
2023-03-28T13:04:04.433Z,100594.09
2023-03-28T13:07:18.497Z,100586.78
2023-03-28T13:10:35.732Z,100592.22
2023-03-28T13:13:49.657Z,100584.31
2023-03-28T13:16:42.800Z,100586.19
2023-03-28T13:19:16.450Z,100586.16
2023-03-28T13:21:56.020Z,100588.75
2023-03-28T13:24:26.269Z,100588.28
2023-03-28T13:27:12.989Z,100575.88
2023-03-28T13:29:51.127Z,100581.47
2023-03-28T13:32:25.078Z,100580.13
2023-03-28T13:34:59.841Z,100573.56
2023-03-28T13:37:41.865Z,100572.91
2023-03-28T13:40:50.833Z,100566.94
2023-03-28T13:43:48.406Z,100552.44
2023-03-28T13:46:36.061Z,100547.97
2023-03-28T13:49:52.302Z,100534.38
2023-03-28T13:52:24.344Z,100543.25
2023-03-28T13:54:54.766Z,100537.03
2023-03-28T13:57:27.310Z,100538.22
2023-03-28T14:00:04.957Z,100540.91
2023-03-28T14:02:49.493Z,100535.97
2023-03-28T14:05:27.951Z,100543.38
2023-03-28T14:08:21.863Z,100539.81
2023-03-28T14:10:52.165Z,100535.09
2023-03-28T14:13:26.157Z,100535.72
2023-03-28T14:15:55.806Z,100532.00
2023-03-28T14:18:38.248Z,100541.16
2023-03-28T14:21:07.640Z,100528.59
2023-03-28T14:23:42.975Z,100543.97
2023-03-28T14:26:22.046Z,100531.06
2023-03-28T14:28:52.015Z,100530.66
2023-03-28T14:31:37.467Z,100524.44
2023-03-28T14:34:34.795Z,100514.59
2023-03-28T14:37:08.664Z,100519.19
2023-03-28T14:39:38.979Z,100506.53
2023-03-28T14:42:13.766Z,100512.78
2023-03-28T14:44:45.523Z,100511.75
2023-03-28T14:47:27.215Z,100515.78
2023-03-28T14:49:55.680Z,100514.81
2023-03-28T14:52:34.418Z,100513.91
2023-03-28T14:55:02.516Z,100506.09
2023-03-28T14:57:30.624Z,100499.56
2023-03-28T14:59:58.712Z,100508.22
2023-03-28T15:02:39.511Z,100505.47
2023-03-28T15:05:13.533Z,100498.97
2023-03-28T15:07:42.461Z,100510.09
2023-03-28T15:10:19.629Z,100503.66
2023-03-28T15:13:11.640Z,100502.94
2023-03-28T15:15:45.267Z,100507.94
2023-03-28T15:18:25.097Z,100506.69
2023-03-28T15:20:58.515Z,100508.09
2023-03-28T15:23:57.957Z,100501.25
2023-03-28T15:26:34.931Z,100507.69
2023-03-28T15:29:05.771Z,100514.97
2023-03-28T15:31:33.976Z,100513.63
2023-03-28T15:34:01.328Z,100506.41
2023-03-28T15:36:34.623Z,100518.66
2023-03-28T15:39:22.383Z,100506.13
2023-03-28T15:41:59.798Z,100502.78
2023-03-28T15:44:31.147Z,100511.00
2023-03-28T15:47:12.952Z,100492.44
2023-03-28T15:49:40.491Z,100494.88
2023-03-28T15:52:25.866Z,100497.63
2023-03-28T15:54:54.888Z,100492.75
2023-03-28T15:57:27.390Z,100493.22
2023-03-28T15:59:56.142Z,100477.34
2023-03-28T16:02:23.215Z,100482.72
2023-03-28T16:05:15.361Z,100485.66
2023-03-28T16:07:48.256Z,100483.50
2023-03-28T16:10:23.435Z,100493.44
2023-03-28T16:13:14.503Z,100498.78
2023-03-28T16:15:59.639Z,100485.44
2023-03-28T16:18:38.990Z,100493.41
2023-03-28T16:21:10.212Z,100490.75
2023-03-28T16:23:37.692Z,100493.47
2023-03-28T16:26:06.891Z,100498.78
2023-03-28T16:28:35.437Z,100500.59
2023-03-28T16:31:03.097Z,100500.25
2023-03-28T16:33:30.590Z,100503.16
2023-03-28T16:35:58.618Z,100505.63
2023-03-28T16:38:26.303Z,100526.75
2023-03-28T16:40:53.499Z,100523.06
2023-03-28T16:43:21.048Z,100511.72
2023-03-28T16:45:50.078Z,100514.38
2023-03-28T16:48:17.624Z,100509.88
2023-03-28T16:50:58.544Z,100511.22
2023-03-28T16:53:26.117Z,100510.06
2023-03-28T16:55:53.472Z,100500.22
2023-03-28T16:58:20.748Z,100502.00
2023-03-28T17:00:51.290Z,100501.69
2023-03-28T17:03:18.686Z,100509.34
2023-03-28T17:05:46.351Z,100513.47
2023-03-28T17:08:13.633Z,100515.09
2023-03-28T17:10:43.445Z,100523.28
2023-03-28T17:13:10.962Z,100527.53
2023-03-28T17:15:38.158Z,100526.00
2023-03-28T17:18:05.771Z,100526.91
2023-03-28T17:20:33.477Z,100528.69
2023-03-28T17:23:00.736Z,100544.72
2023-03-28T17:25:28.017Z,100552.53
2023-03-28T17:27:55.586Z,100547.91
2023-03-28T17:30:22.780Z,100554.09
2023-03-28T17:32:51.284Z,100554.94
2023-03-28T17:35:18.721Z,100564.03
2023-03-28T17:37:45.888Z,100568.34
2023-03-28T17:40:14.483Z,100568.00
2023-03-28T17:42:41.707Z,100567.19
2023-03-28T17:45:10.648Z,100567.38
2023-03-28T17:47:39.425Z,100576.19
2023-03-28T17:50:07.864Z,100574.41
2023-03-28T17:52:35.468Z,100585.56
2023-03-28T17:55:03.198Z,100585.97
2023-03-28T17:57:30.453Z,100582.75
2023-03-28T17:59:58.021Z,100589.66
2023-03-28T18:02:25.422Z,100590.47
2023-03-28T18:05:05.157Z,100596.63
2023-03-28T18:07:34.848Z,100595.34
2023-03-28T18:10:05.968Z,100598.25
2023-03-28T18:12:33.224Z,100597.75
2023-03-28T18:15:01.435Z,100601.72
2023-03-28T18:17:28.737Z,100602.03
2023-03-28T18:19:56.043Z,100604.13
2023-03-28T18:22:23.296Z,100612.16
2023-03-28T18:24:50.487Z,100618.44
2023-03-28T18:27:17.635Z,100621.91
2023-03-28T18:29:44.817Z,100627.25
2023-03-28T18:32:12.290Z,100629.13
2023-03-28T18:34:41.313Z,100627.34
2023-03-28T18:37:10.144Z,100631.53
2023-03-28T18:39:37.613Z,100633.16
2023-03-28T18:42:06.288Z,100635.09
2023-03-28T18:44:36.498Z,100636.59
2023-03-28T18:47:05.475Z,100630.88
2023-03-28T18:49:34.563Z,100641.13
2023-03-28T18:52:04.669Z,100641.88
2023-03-28T18:54:34.512Z,100642.59
2023-03-28T18:57:03.141Z,100633.97
2023-03-28T18:59:31.059Z,100653.00
2023-03-28T19:01:59.427Z,100649.56
2023-03-28T19:04:27.411Z,100648.88
2023-03-28T19:06:54.681Z,100647.09
2023-03-28T19:09:22.572Z,100650.38
2023-03-28T19:11:53.791Z,100654.38
2023-03-28T19:14:20.951Z,100665.03
2023-03-28T19:16:48.280Z,100665.44
2023-03-28T19:19:16.474Z,100667.41
2023-03-28T19:21:43.689Z,100677.56
2023-03-28T19:24:10.949Z,100686.78
2023-03-28T19:26:38.657Z,100693.47
2023-03-28T19:29:05.970Z,100686.25
2023-03-28T19:31:33.230Z,100688.81
2023-03-28T19:34:00.433Z,100679.16
2023-03-28T19:36:27.643Z,100675.66
2023-03-28T19:38:54.848Z,100679.81
2023-03-28T19:41:24.441Z,100671.56
2023-03-28T19:43:51.686Z,100679.47
2023-03-28T19:46:32.406Z,100683.72
2023-03-28T19:49:05.534Z,100683.28
2023-03-28T19:51:33.446Z,100690.53
2023-03-28T19:54:01.064Z,100698.13
2023-03-28T19:56:28.418Z,100701.00
2023-03-28T19:58:55.672Z,100711.59
2023-03-28T20:01:23.053Z,100702.06
2023-03-28T20:03:53.004Z,100704.94
2023-03-28T20:06:22.738Z,100708.59
2023-03-28T20:08:51.022Z,100717.44
2023-03-28T20:11:18.589Z,100709.69
2023-03-28T20:13:45.854Z,100710.16
2023-03-28T20:16:14.164Z,100693.97
2023-03-28T20:18:41.836Z,100694.19
2023-03-28T20:21:14.188Z,100688.72
2023-03-28T20:23:41.879Z,100691.47
2023-03-28T20:26:19.864Z,100684.97
2023-03-28T20:28:50.261Z,100691.38
2023-03-28T20:31:19.150Z,100696.34
2023-03-28T20:33:46.582Z,100693.25
2023-03-28T20:36:13.856Z,100700.38
2023-03-28T20:38:41.224Z,100695.97
2023-03-28T20:41:18.479Z,100706.56
2023-03-28T20:43:50.103Z,100707.63
2023-03-28T20:46:19.599Z,100715.19
2023-03-28T20:48:56.878Z,100702.94
2023-03-28T20:51:26.022Z,100707.59
2023-03-28T20:54:00.112Z,100704.16
2023-03-28T20:56:30.163Z,100711.69
2023-03-28T20:58:59.515Z,100710.69
2023-03-28T21:01:29.854Z,100707.69
2023-03-28T21:03:58.951Z,100715.84
2023-03-28T21:06:38.029Z,100714.75
2023-03-28T21:09:10.500Z,100720.41
2023-03-28T21:11:40.146Z,100724.94
2023-03-28T21:14:12.008Z,100737.72
2023-03-28T21:16:40.394Z,100740.72
2023-03-28T21:19:08.070Z,100741.53
2023-03-28T21:21:35.585Z,100735.50
2023-03-28T21:24:05.104Z,100718.81
2023-03-28T21:26:32.449Z,100712.56
2023-03-28T21:28:59.800Z,100704.91
2023-03-28T21:31:29.120Z,100701.28
2023-03-28T21:33:58.734Z,100713.19
2023-03-28T21:36:27.200Z,100704.31
2023-03-28T21:38:55.952Z,100714.19
2023-03-28T21:41:23.801Z,100705.44
2023-03-28T21:43:53.526Z,100718.00
2023-03-28T21:46:22.550Z,100712.81
2023-03-28T21:48:49.863Z,100714.91
2023-03-28T21:51:17.590Z,100723.66
2023-03-28T21:53:45.893Z,100721.25
2023-03-28T21:56:14.889Z,100719.50
2023-03-28T21:58:42.516Z,100719.50
2023-03-28T22:01:14.556Z,100733.88
2023-03-28T22:03:42.035Z,100732.63
2023-03-28T22:06:09.954Z,100738.56
2023-03-28T22:08:37.178Z,100744.47
2023-03-28T22:11:14.843Z,100740.00
2023-03-28T22:13:44.882Z,100736.53
2023-03-28T22:16:15.430Z,100737.00
2023-03-28T22:18:49.456Z,100753.09
2023-03-28T22:21:17.224Z,100743.69
2023-03-28T22:23:47.090Z,100740.91
2023-03-28T22:26:14.660Z,100753.84
2023-03-28T22:28:41.823Z,100755.50
2023-03-28T22:31:09.114Z,100756.94
2023-03-28T22:33:37.003Z,100767.13
2023-03-28T22:36:05.118Z,100773.03
2023-03-28T22:38:32.318Z,100778.69
2023-03-28T22:40:59.675Z,100785.59
2023-03-28T22:43:28.928Z,100768.84
2023-03-28T22:45:56.620Z,100771.00
2023-03-28T22:48:23.810Z,100773.75
2023-03-28T22:50:50.957Z,100776.56
2023-03-28T22:53:22.528Z,100774.06
2023-03-28T22:55:49.796Z,100782.59
2023-03-28T22:58:17.838Z,100792.31
2023-03-28T23:00:46.249Z,100790.50
2023-03-28T23:03:14.582Z,100787.78
2023-03-28T23:05:42.546Z,100787.22
2023-03-28T23:08:11.208Z,100779.72
2023-03-28T23:10:38.697Z,100790.72
2023-03-28T23:13:06.739Z,100785.84
2023-03-28T23:15:34.060Z,100783.69
2023-03-28T23:18:01.288Z,100779.28
2023-03-28T23:20:29.380Z,100773.84
2023-03-28T23:22:56.711Z,100772.13
2023-03-28T23:25:24.187Z,100776.09
2023-03-28T23:27:51.543Z,100784.34
2023-03-28T23:30:18.908Z,100767.47
2023-03-28T23:32:46.168Z,100766.81
2023-03-28T23:35:13.414Z,100760.31
2023-03-28T23:37:40.665Z,100755.56
2023-03-28T23:40:14.566Z,100748.34
2023-03-28T23:42:44.722Z,100752.44
2023-03-28T23:45:14.826Z,100754.81
2023-03-28T23:47:44.232Z,100763.66
2023-03-28T23:50:12.134Z,100756.28
2023-03-28T23:52:39.921Z,100761.84
2023-03-28T23:55:08.524Z,100749.72
2023-03-28T23:57:35.804Z,100763.75
